sensor_id;sensor_type;location;lat;lon;timestamp;temperature;humidity
7646;DHT22;3864;48.180;14.178;2023-06-14T00:01:59;9.30;99.90
7646;DHT22;3864;48.180;14.178;2023-06-14T00:04:28;9.30;99.90
7646;DHT22;3864;48.180;14.178;2023-06-14T00:06:56;9.20;99.90
7646;DHT22;3864;48.180;14.178;2023-06-14T00:09:23;9.20;99.90
7646;DHT22;3864;48.180;14.178;2023-06-14T00:11:51;9.10;99.90
7646;DHT22;3864;48.180;14.178;2023-06-14T00:14:18;9.10;99.90
7646;DHT22;3864;48.180;14.178;2023-06-14T00:16:46;9.10;99.90
7646;DHT22;3864;48.180;14.178;2023-06-14T00:19:14;9.00;99.90
7646;DHT22;3864;48.180;14.178;2023-06-14T00:21:47;9.00;99.90
7646;DHT22;3864;48.180;14.178;2023-06-14T00:24:14;9.00;99.90
7646;DHT22;3864;48.180;14.178;2023-06-14T00:26:41;8.90;99.90
7646;DHT22;3864;48.180;14.178;2023-06-14T00:29:09;8.80;99.90
7646;DHT22;3864;48.180;14.178;2023-06-14T00:31:36;8.80;99.90
7646;DHT22;3864;48.180;14.178;2023-06-14T00:34:03;8.70;99.90
7646;DHT22;3864;48.180;14.178;2023-06-14T00:36:30;8.70;99.90
7646;DHT22;3864;48.180;14.178;2023-06-14T00:38:59;8.60;99.90
7646;DHT22;3864;48.180;14.178;2023-06-14T00:41:27;8.70;99.90
7646;DHT22;3864;48.180;14.178;2023-06-14T00:43:54;8.70;99.90
7646;DHT22;3864;48.180;14.178;2023-06-14T00:46:25;8.60;99.90
7646;DHT22;3864;48.180;14.178;2023-06-14T00:48:53;8.60;99.90
7646;DHT22;3864;48.180;14.178;2023-06-14T00:51:21;8.70;99.90
7646;DHT22;3864;48.180;14.178;2023-06-14T00:53:51;8.80;99.90
7646;DHT22;3864;48.180;14.178;2023-06-14T00:56:20;9.10;99.90
7646;DHT22;3864;48.180;14.178;2023-06-14T00:58:49;9.50;99.90
7646;DHT22;3864;48.180;14.178;2023-06-14T01:01:17;9.70;99.90
7646;DHT22;3864;48.180;14.178;2023-06-14T01:03:45;9.90;99.90
7646;DHT22;3864;48.180;14.178;2023-06-14T01:06:19;9.90;99.90
7646;DHT22;3864;48.180;14.178;2023-06-14T01:09:01;10.00;99.90
7646;DHT22;3864;48.180;14.178;2023-06-14T01:11:38;10.00;99.90
7646;DHT22;3864;48.180;14.178;2023-06-14T01:14:07;10.00;99.90
7646;DHT22;3864;48.180;14.178;2023-06-14T01:16:36;10.00;99.90
7646;DHT22;3864;48.180;14.178;2023-06-14T01:19:06;9.90;99.90
7646;DHT22;3864;48.180;14.178;2023-06-14T01:21:37;9.80;99.90
7646;DHT22;3864;48.180;14.178;2023-06-14T01:24:09;9.70;99.90
7646;DHT22;3864;48.180;14.178;2023-06-14T01:26:38;9.50;99.90
7646;DHT22;3864;48.180;14.178;2023-06-14T01:29:11;9.40;99.90
7646;DHT22;3864;48.180;14.178;2023-06-14T01:31:43;9.20;99.90
7646;DHT22;3864;48.180;14.178;2023-06-14T01:34:11;9.10;99.90
7646;DHT22;3864;48.180;14.178;2023-06-14T01:36:41;8.90;99.90
7646;DHT22;3864;48.180;14.178;2023-06-14T01:39:14;8.70;99.90
7646;DHT22;3864;48.180;14.178;2023-06-14T01:41:42;8.50;99.90
7646;DHT22;3864;48.180;14.178;2023-06-14T01:44:12;8.30;99.90
7646;DHT22;3864;48.180;14.178;2023-06-14T01:46:42;8.10;99.90
7646;DHT22;3864;48.180;14.178;2023-06-14T01:49:11;8.00;99.90
7646;DHT22;3864;48.180;14.178;2023-06-14T01:51:38;8.00;99.90
7646;DHT22;3864;48.180;14.178;2023-06-14T01:54:06;7.90;99.90
7646;DHT22;3864;48.180;14.178;2023-06-14T01:56:35;7.90;99.90
7646;DHT22;3864;48.180;14.178;2023-06-14T01:59:03;7.90;99.90
7646;DHT22;3864;48.180;14.178;2023-06-14T02:01:30;7.80;99.90
7646;DHT22;3864;48.180;14.178;2023-06-14T02:04:00;7.80;99.90
7646;DHT22;3864;48.180;14.178;2023-06-14T02:06:35;7.90;99.90
7646;DHT22;3864;48.180;14.178;2023-06-14T02:09:03;7.90;99.90
7646;DHT22;3864;48.180;14.178;2023-06-14T02:11:31;7.80;99.90
7646;DHT22;3864;48.180;14.178;2023-06-14T02:14:01;7.80;99.90
7646;DHT22;3864;48.180;14.178;2023-06-14T02:16:29;7.70;99.90
7646;DHT22;3864;48.180;14.178;2023-06-14T02:18:56;7.60;99.90
7646;DHT22;3864;48.180;14.178;2023-06-14T02:21:24;7.60;99.90
7646;DHT22;3864;48.180;14.178;2023-06-14T02:23:51;7.60;99.90
7646;DHT22;3864;48.180;14.178;2023-06-14T02:26:19;7.50;99.90
7646;DHT22;3864;48.180;14.178;2023-06-14T02:28:46;7.50;99.90
7646;DHT22;3864;48.180;14.178;2023-06-14T02:31:15;7.40;99.90
7646;DHT22;3864;48.180;14.178;2023-06-14T02:33:43;7.30;99.90
7646;DHT22;3864;48.180;14.178;2023-06-14T02:36:10;7.30;99.90
7646;DHT22;3864;48.180;14.178;2023-06-14T02:38:38;7.30;99.90
7646;DHT22;3864;48.180;14.178;2023-06-14T02:41:06;7.20;99.90
7646;DHT22;3864;48.180;14.178;2023-06-14T02:43:35;7.30;99.90
7646;DHT22;3864;48.180;14.178;2023-06-14T02:46:03;7.30;99.90
7646;DHT22;3864;48.180;14.178;2023-06-14T02:48:32;7.30;99.90
7646;DHT22;3864;48.180;14.178;2023-06-14T02:51:00;7.30;99.90
7646;DHT22;3864;48.180;14.178;2023-06-14T02:53:27;7.50;99.90
7646;DHT22;3864;48.180;14.178;2023-06-14T02:55:55;7.30;99.90
7646;DHT22;3864;48.180;14.178;2023-06-14T02:58:22;7.30;99.90
7646;DHT22;3864;48.180;14.178;2023-06-14T03:00:50;7.30;99.90
7646;DHT22;3864;48.180;14.178;2023-06-14T03:03:19;7.30;99.90
7646;DHT22;3864;48.180;14.178;2023-06-14T03:05:49;7.30;99.90
7646;DHT22;3864;48.180;14.178;2023-06-14T03:08:17;7.30;99.90
7646;DHT22;3864;48.180;14.178;2023-06-14T03:10:46;7.30;99.90
7646;DHT22;3864;48.180;14.178;2023-06-14T03:13:14;7.30;99.90
7646;DHT22;3864;48.180;14.178;2023-06-14T03:15:41;7.20;99.90
7646;DHT22;3864;48.180;14.178;2023-06-14T03:18:10;7.20;99.90
7646;DHT22;3864;48.180;14.178;2023-06-14T03:20:38;7.20;99.90
7646;DHT22;3864;48.180;14.178;2023-06-14T03:23:08;7.30;99.90
7646;DHT22;3864;48.180;14.178;2023-06-14T03:25:35;7.40;99.90
7646;DHT22;3864;48.180;14.178;2023-06-14T03:28:04;7.40;99.90
7646;DHT22;3864;48.180;14.178;2023-06-14T03:30:31;7.40;99.90
7646;DHT22;3864;48.180;14.178;2023-06-14T03:32:59;7.50;99.90
7646;DHT22;3864;48.180;14.178;2023-06-14T03:35:29;7.50;99.90
7646;DHT22;3864;48.180;14.178;2023-06-14T03:37:57;7.50;99.90
7646;DHT22;3864;48.180;14.178;2023-06-14T03:40:26;7.50;99.90
7646;DHT22;3864;48.180;14.178;2023-06-14T03:42:54;7.60;99.90
7646;DHT22;3864;48.180;14.178;2023-06-14T03:45:21;7.70;99.90
7646;DHT22;3864;48.180;14.178;2023-06-14T03:47:49;7.70;99.90
7646;DHT22;3864;48.180;14.178;2023-06-14T03:50:17;7.70;99.90
7646;DHT22;3864;48.180;14.178;2023-06-14T03:52:45;7.70;99.90
7646;DHT22;3864;48.180;14.178;2023-06-14T03:55:14;7.80;99.90
7646;DHT22;3864;48.180;14.178;2023-06-14T03:57:43;7.90;99.90
7646;DHT22;3864;48.180;14.178;2023-06-14T04:00:12;7.90;99.90
7646;DHT22;3864;48.180;14.178;2023-06-14T04:02:39;8.10;99.90
7646;DHT22;3864;48.180;14.178;2023-06-14T04:05:07;8.10;99.90
7646;DHT22;3864;48.180;14.178;2023-06-14T04:07:35;8.20;99.90
7646;DHT22;3864;48.180;14.178;2023-06-14T04:10:06;8.30;99.90
7646;DHT22;3864;48.180;14.178;2023-06-14T04:12:34;8.40;99.90
7646;DHT22;3864;48.180;14.178;2023-06-14T04:15:06;8.50;99.90
7646;DHT22;3864;48.180;14.178;2023-06-14T04:17:33;8.60;99.90
7646;DHT22;3864;48.180;14.178;2023-06-14T04:20:03;8.70;99.90
7646;DHT22;3864;48.180;14.178;2023-06-14T04:22:32;8.80;99.90
7646;DHT22;3864;48.180;14.178;2023-06-14T04:25:00;9.00;99.90
7646;DHT22;3864;48.180;14.178;2023-06-14T04:27:28;9.20;99.90
7646;DHT22;3864;48.180;14.178;2023-06-14T04:29:59;9.60;99.90
7646;DHT22;3864;48.180;14.178;2023-06-14T04:32:30;10.40;99.90
7646;DHT22;3864;48.180;14.178;2023-06-14T04:34:59;11.50;99.90
7646;DHT22;3864;48.180;14.178;2023-06-14T04:37:27;12.00;99.90
7646;DHT22;3864;48.180;14.178;2023-06-14T04:39:56;12.40;99.90
7646;DHT22;3864;48.180;14.178;2023-06-14T04:42:25;12.80;99.90
7646;DHT22;3864;48.180;14.178;2023-06-14T04:44:56;13.30;99.90
7646;DHT22;3864;48.180;14.178;2023-06-14T04:47:24;14.40;99.90
7646;DHT22;3864;48.180;14.178;2023-06-14T04:49:57;15.40;99.90
7646;DHT22;3864;48.180;14.178;2023-06-14T04:52:26;16.70;99.90
7646;DHT22;3864;48.180;14.178;2023-06-14T04:54:55;17.90;99.90
7646;DHT22;3864;48.180;14.178;2023-06-14T04:57:23;18.90;99.90
7646;DHT22;3864;48.180;14.178;2023-06-14T04:59:51;19.80;99.90
7646;DHT22;3864;48.180;14.178;2023-06-14T05:02:21;20.10;99.90
7646;DHT22;3864;48.180;14.178;2023-06-14T05:04:49;20.50;99.90
7646;DHT22;3864;48.180;14.178;2023-06-14T05:07:18;20.70;99.90
7646;DHT22;3864;48.180;14.178;2023-06-14T05:09:45;20.60;99.90
7646;DHT22;3864;48.180;14.178;2023-06-14T05:12:13;20.20;99.90
7646;DHT22;3864;48.180;14.178;2023-06-14T05:14:44;19.90;99.90
7646;DHT22;3864;48.180;14.178;2023-06-14T05:17:11;20.10;99.90
7646;DHT22;3864;48.180;14.178;2023-06-14T05:19:38;20.50;99.90
7646;DHT22;3864;48.180;14.178;2023-06-14T05:22:06;21.20;99.90
7646;DHT22;3864;48.180;14.178;2023-06-14T05:24:39;21.60;99.90
7646;DHT22;3864;48.180;14.178;2023-06-14T05:27:07;21.60;99.90
7646;DHT22;3864;48.180;14.178;2023-06-14T05:29:36;21.40;99.90
7646;DHT22;3864;48.180;14.178;2023-06-14T05:32:04;21.60;99.90
7646;DHT22;3864;48.180;14.178;2023-06-14T05:34:32;22.00;99.90
7646;DHT22;3864;48.180;14.178;2023-06-14T05:36:59;22.50;99.90
7646;DHT22;3864;48.180;14.178;2023-06-14T05:39:29;22.80;99.90
7646;DHT22;3864;48.180;14.178;2023-06-14T05:41:58;23.00;99.90
7646;DHT22;3864;48.180;14.178;2023-06-14T05:44:25;23.60;99.90
7646;DHT22;3864;48.180;14.178;2023-06-14T05:47:06;24.10;99.90
7646;DHT22;3864;48.180;14.178;2023-06-14T05:49:34;24.70;99.90
7646;DHT22;3864;48.180;14.178;2023-06-14T05:52:02;24.30;99.90
7646;DHT22;3864;48.180;14.178;2023-06-14T05:54:30;24.20;99.90
7646;DHT22;3864;48.180;14.178;2023-06-14T05:56:59;24.30;99.90
7646;DHT22;3864;48.180;14.178;2023-06-14T05:59:27;24.50;99.90
7646;DHT22;3864;48.180;14.178;2023-06-14T06:01:56;24.80;99.90
7646;DHT22;3864;48.180;14.178;2023-06-14T06:04:23;24.60;99.90
7646;DHT22;3864;48.180;14.178;2023-06-14T06:06:51;24.80;99.90
7646;DHT22;3864;48.180;14.178;2023-06-14T06:09:18;25.30;99.90
7646;DHT22;3864;48.180;14.178;2023-06-14T06:12:01;25.40;99.90
7646;DHT22;3864;48.180;14.178;2023-06-14T06:14:28;25.20;99.90
7646;DHT22;3864;48.180;14.178;2023-06-14T06:16:56;24.80;99.90
7646;DHT22;3864;48.180;14.178;2023-06-14T06:19:24;23.70;99.90
7646;DHT22;3864;48.180;14.178;2023-06-14T06:21:51;24.00;99.90
7646;DHT22;3864;48.180;14.178;2023-06-14T06:24:18;24.50;99.90
7646;DHT22;3864;48.180;14.178;2023-06-14T06:26:46;24.40;98.80
7646;DHT22;3864;48.180;14.178;2023-06-14T06:29:15;21.80;99.80
7646;DHT22;3864;48.180;14.178;2023-06-14T06:31:43;22.70;99.90
7646;DHT22;3864;48.180;14.178;2023-06-14T06:34:11;24.50;99.90
7646;DHT22;3864;48.180;14.178;2023-06-14T06:36:38;25.50;99.90
7646;DHT22;3864;48.180;14.178;2023-06-14T06:39:06;24.60;98.70
7646;DHT22;3864;48.180;14.178;2023-06-14T06:41:35;25.20;99.30
7646;DHT22;3864;48.180;14.178;2023-06-14T06:44:05;24.80;97.60
7646;DHT22;3864;48.180;14.178;2023-06-14T06:46:37;23.70;99.80
7646;DHT22;3864;48.180;14.178;2023-06-14T06:49:06;25.00;99.30
7646;DHT22;3864;48.180;14.178;2023-06-14T06:51:35;22.40;98.20
7646;DHT22;3864;48.180;14.178;2023-06-14T06:54:02;23.90;99.80
7646;DHT22;3864;48.180;14.178;2023-06-14T06:56:31;25.20;98.50
7646;DHT22;3864;48.180;14.178;2023-06-14T06:58:59;26.00;98.20
7646;DHT22;3864;48.180;14.178;2023-06-14T07:01:26;26.50;98.80
7646;DHT22;3864;48.180;14.178;2023-06-14T07:03:55;26.50;98.10
7646;DHT22;3864;48.180;14.178;2023-06-14T07:06:23;26.40;96.90
7646;DHT22;3864;48.180;14.178;2023-06-14T07:08:52;27.10;96.60
7646;DHT22;3864;48.180;14.178;2023-06-14T07:11:20;28.00;96.90
7646;DHT22;3864;48.180;14.178;2023-06-14T07:13:47;27.90;95.60
7646;DHT22;3864;48.180;14.178;2023-06-14T07:16:15;26.20;96.80
7646;DHT22;3864;48.180;14.178;2023-06-14T07:18:42;26.80;96.80
7646;DHT22;3864;48.180;14.178;2023-06-14T07:21:11;26.80;95.40
7646;DHT22;3864;48.180;14.178;2023-06-14T07:23:38;27.70;96.20
7646;DHT22;3864;48.180;14.178;2023-06-14T07:26:06;28.30;95.30
7646;DHT22;3864;48.180;14.178;2023-06-14T07:28:34;28.90;95.00
7646;DHT22;3864;48.180;14.178;2023-06-14T07:31:01;29.40;94.20
7646;DHT22;3864;48.180;14.178;2023-06-14T07:33:29;27.80;95.80
7646;DHT22;3864;48.180;14.178;2023-06-14T07:35:56;28.20;95.20
7646;DHT22;3864;48.180;14.178;2023-06-14T07:38:32;26.50;95.00
7646;DHT22;3864;48.180;14.178;2023-06-14T07:40:59;24.60;95.70
7646;DHT22;3864;48.180;14.178;2023-06-14T07:43:27;25.60;95.50
7646;DHT22;3864;48.180;14.178;2023-06-14T07:45:55;26.20;95.90
7646;DHT22;3864;48.180;14.178;2023-06-14T07:48:24;24.70;95.40
7646;DHT22;3864;48.180;14.178;2023-06-14T07:50:51;22.70;95.70
7646;DHT22;3864;48.180;14.178;2023-06-14T07:53:19;23.40;97.00
7646;DHT22;3864;48.180;14.178;2023-06-14T07:55:48;22.60;96.50
7646;DHT22;3864;48.180;14.178;2023-06-14T07:58:16;21.20;96.30
7646;DHT22;3864;48.180;14.178;2023-06-14T08:00:43;22.20;97.60
7646;DHT22;3864;48.180;14.178;2023-06-14T08:03:11;23.00;98.80
7646;DHT22;3864;48.180;14.178;2023-06-14T08:05:39;23.40;97.00
7646;DHT22;3864;48.180;14.178;2023-06-14T08:08:07;22.80;96.80
7646;DHT22;3864;48.180;14.178;2023-06-14T08:10:35;21.80;97.60
7646;DHT22;3864;48.180;14.178;2023-06-14T08:13:05;22.50;98.20
7646;DHT22;3864;48.180;14.178;2023-06-14T08:15:32;23.20;99.30
7646;DHT22;3864;48.180;14.178;2023-06-14T08:18:00;22.70;99.00
7646;DHT22;3864;48.180;14.178;2023-06-14T08:20:30;22.50;97.30
7646;DHT22;3864;48.180;14.178;2023-06-14T08:22:58;22.90;98.40
7646;DHT22;3864;48.180;14.178;2023-06-14T08:25:25;22.30;97.70
7646;DHT22;3864;48.180;14.178;2023-06-14T08:27:53;21.90;98.30
7646;DHT22;3864;48.180;14.178;2023-06-14T08:30:22;22.00;99.40
7646;DHT22;3864;48.180;14.178;2023-06-14T08:32:49;22.20;99.90
7646;DHT22;3864;48.180;14.178;2023-06-14T08:35:17;21.80;98.90
7646;DHT22;3864;48.180;14.178;2023-06-14T08:37:45;21.80;99.90
7646;DHT22;3864;48.180;14.178;2023-06-14T08:40:19;22.70;99.20
7646;DHT22;3864;48.180;14.178;2023-06-14T08:42:53;22.90;99.80
7646;DHT22;3864;48.180;14.178;2023-06-14T08:45:23;22.20;98.90
7646;DHT22;3864;48.180;14.178;2023-06-14T08:47:51;22.40;98.80
7646;DHT22;3864;48.180;14.178;2023-06-14T08:50:24;22.70;99.10
7646;DHT22;3864;48.180;14.178;2023-06-14T08:52:54;23.20;98.90
7646;DHT22;3864;48.180;14.178;2023-06-14T08:55:23;23.20;98.00
7646;DHT22;3864;48.180;14.178;2023-06-14T08:57:58;22.80;98.50
7646;DHT22;3864;48.180;14.178;2023-06-14T09:00:27;23.20;99.60
7646;DHT22;3864;48.180;14.178;2023-06-14T09:02:55;23.60;98.20
7646;DHT22;3864;48.180;14.178;2023-06-14T09:05:24;24.10;99.60
7646;DHT22;3864;48.180;14.178;2023-06-14T09:07:51;23.70;99.20
7646;DHT22;3864;48.180;14.178;2023-06-14T09:10:21;24.40;99.40
7646;DHT22;3864;48.180;14.178;2023-06-14T09:12:48;24.30;98.00
7646;DHT22;3864;48.180;14.178;2023-06-14T09:15:15;24.30;97.60
7646;DHT22;3864;48.180;14.178;2023-06-14T09:17:44;23.60;97.30
7646;DHT22;3864;48.180;14.178;2023-06-14T09:20:12;24.30;99.50
7646;DHT22;3864;48.180;14.178;2023-06-14T09:22:44;24.90;99.10
7646;DHT22;3864;48.180;14.178;2023-06-14T09:25:11;25.60;98.90
7646;DHT22;3864;48.180;14.178;2023-06-14T09:27:53;23.80;97.50
7646;DHT22;3864;48.180;14.178;2023-06-14T09:30:22;23.80;98.60
7646;DHT22;3864;48.180;14.178;2023-06-14T09:33:18;23.90;98.00
7646;DHT22;3864;48.180;14.178;2023-06-14T09:35:51;24.10;98.50
7646;DHT22;3864;48.180;14.178;2023-06-14T09:38:19;24.70;98.30
7646;DHT22;3864;48.180;14.178;2023-06-14T09:40:51;23.90;97.00
7646;DHT22;3864;48.180;14.178;2023-06-14T09:43:21;22.90;97.30
7646;DHT22;3864;48.180;14.178;2023-06-14T09:45:54;23.30;98.30
7646;DHT22;3864;48.180;14.178;2023-06-14T09:48:23;23.90;98.80
7646;DHT22;3864;48.180;14.178;2023-06-14T09:50:55;24.40;97.50
7646;DHT22;3864;48.180;14.178;2023-06-14T09:53:24;25.30;97.80
7646;DHT22;3864;48.180;14.178;2023-06-14T09:55:55;24.40;97.30
7646;DHT22;3864;48.180;14.178;2023-06-14T09:58:26;25.20;97.50
7646;DHT22;3864;48.180;14.178;2023-06-14T10:00:55;26.20;99.10
7646;DHT22;3864;48.180;14.178;2023-06-14T10:03:28;26.70;97.80
7646;DHT22;3864;48.180;14.178;2023-06-14T10:05:58;26.20;95.20
7646;DHT22;3864;48.180;14.178;2023-06-14T10:08:30;25.90;95.50
7646;DHT22;3864;48.180;14.178;2023-06-14T10:11:02;25.10;95.30
7646;DHT22;3864;48.180;14.178;2023-06-14T10:13:34;25.10;95.60
7646;DHT22;3864;48.180;14.178;2023-06-14T10:16:09;25.00;95.60
7646;DHT22;3864;48.180;14.178;2023-06-14T10:19:04;25.20;95.90
7646;DHT22;3864;48.180;14.178;2023-06-14T10:21:45;25.10;95.20
7646;DHT22;3864;48.180;14.178;2023-06-14T10:24:16;25.30;94.10
7646;DHT22;3864;48.180;14.178;2023-06-14T10:26:53;26.30;95.40
7646;DHT22;3864;48.180;14.178;2023-06-14T10:29:21;26.40;95.70
7646;DHT22;3864;48.180;14.178;2023-06-14T10:31:50;27.10;96.90
7646;DHT22;3864;48.180;14.178;2023-06-14T10:34:25;25.90;95.90
7646;DHT22;3864;48.180;14.178;2023-06-14T10:37:04;26.00;95.50
7646;DHT22;3864;48.180;14.178;2023-06-14T10:39:45;26.80;96.00
7646;DHT22;3864;48.180;14.178;2023-06-14T10:42:13;25.70;93.70
7646;DHT22;3864;48.180;14.178;2023-06-14T10:44:43;25.20;95.10
7646;DHT22;3864;48.180;14.178;2023-06-14T10:47:26;24.50;96.00
7646;DHT22;3864;48.180;14.178;2023-06-14T10:49:57;24.40;95.90
7646;DHT22;3864;48.180;14.178;2023-06-14T10:52:27;25.40;96.40
7646;DHT22;3864;48.180;14.178;2023-06-14T10:55:07;25.40;94.20
7646;DHT22;3864;48.180;14.178;2023-06-14T10:57:41;25.10;94.40
7646;DHT22;3864;48.180;14.178;2023-06-14T11:00:10;25.00;94.60
7646;DHT22;3864;48.180;14.178;2023-06-14T11:06:15;25.90;94.20
7646;DHT22;3864;48.180;14.178;2023-06-14T11:09:13;26.00;94.60
7646;DHT22;3864;48.180;14.178;2023-06-14T11:11:48;26.30;95.20
7646;DHT22;3864;48.180;14.178;2023-06-14T11:14:16;26.40;94.00
7646;DHT22;3864;48.180;14.178;2023-06-14T11:16:48;26.70;93.60
7646;DHT22;3864;48.180;14.178;2023-06-14T11:19:15;25.80;92.90
7646;DHT22;3864;48.180;14.178;2023-06-14T11:21:47;26.10;93.00
7646;DHT22;3864;48.180;14.178;2023-06-14T11:24:15;26.80;93.50
7646;DHT22;3864;48.180;14.178;2023-06-14T11:26:42;26.50;94.90
7646;DHT22;3864;48.180;14.178;2023-06-14T11:29:10;26.90;95.80
7646;DHT22;3864;48.180;14.178;2023-06-14T11:31:37;27.40;95.40
7646;DHT22;3864;48.180;14.178;2023-06-14T11:34:10;26.50;92.00
7646;DHT22;3864;48.180;14.178;2023-06-14T11:36:38;26.60;92.30
7646;DHT22;3864;48.180;14.178;2023-06-14T11:39:08;26.50;92.30
7646;DHT22;3864;48.180;14.178;2023-06-14T11:41:39;27.20;92.80
7646;DHT22;3864;48.180;14.178;2023-06-14T11:44:07;26.40;92.50
7646;DHT22;3864;48.180;14.178;2023-06-14T11:46:35;26.60;92.40
7646;DHT22;3864;48.180;14.178;2023-06-14T11:49:04;26.80;92.30
7646;DHT22;3864;48.180;14.178;2023-06-14T11:51:33;27.90;93.50
7646;DHT22;3864;48.180;14.178;2023-06-14T11:54:01;27.10;91.80
7646;DHT22;3864;48.180;14.178;2023-06-14T11:56:31;27.20;91.90
7646;DHT22;3864;48.180;14.178;2023-06-14T11:58:59;27.30;91.50
7646;DHT22;3864;48.180;14.178;2023-06-14T12:01:26;28.20;93.30
7646;DHT22;3864;48.180;14.178;2023-06-14T12:03:54;28.00;90.50
7646;DHT22;3864;48.180;14.178;2023-06-14T12:06:29;27.60;90.30
7646;DHT22;3864;48.180;14.178;2023-06-14T12:08:58;28.10;90.70
7646;DHT22;3864;48.180;14.178;2023-06-14T12:11:41;28.30;90.60
7646;DHT22;3864;48.180;14.178;2023-06-14T12:14:09;27.50;91.20
7646;DHT22;3864;48.180;14.178;2023-06-14T12:16:39;28.20;91.10
7646;DHT22;3864;48.180;14.178;2023-06-14T12:19:13;27.40;91.70
7646;DHT22;3864;48.180;14.178;2023-06-14T12:21:41;27.60;91.80
7646;DHT22;3864;48.180;14.178;2023-06-14T12:24:11;27.10;92.30
7646;DHT22;3864;48.180;14.178;2023-06-14T12:26:41;26.20;92.50
7646;DHT22;3864;48.180;14.178;2023-06-14T12:29:08;25.80;92.40
7646;DHT22;3864;48.180;14.178;2023-06-14T12:31:37;25.00;94.00
7646;DHT22;3864;48.180;14.178;2023-06-14T12:34:07;24.20;96.00
7646;DHT22;3864;48.180;14.178;2023-06-14T12:36:36;23.90;96.20
7646;DHT22;3864;48.180;14.178;2023-06-14T12:39:07;23.20;95.80
7646;DHT22;3864;48.180;14.178;2023-06-14T12:41:35;23.10;95.90
7646;DHT22;3864;48.180;14.178;2023-06-14T12:44:05;23.70;96.60
7646;DHT22;3864;48.180;14.178;2023-06-14T12:46:33;24.10;96.10
7646;DHT22;3864;48.180;14.178;2023-06-14T12:49:00;24.20;96.10
7646;DHT22;3864;48.180;14.178;2023-06-14T12:51:28;24.00;95.80
7646;DHT22;3864;48.180;14.178;2023-06-14T12:53:55;24.30;95.50
7646;DHT22;3864;48.180;14.178;2023-06-14T12:56:22;24.40;95.10
7646;DHT22;3864;48.180;14.178;2023-06-14T12:58:50;24.70;95.70
7646;DHT22;3864;48.180;14.178;2023-06-14T13:01:19;24.80;95.20
7646;DHT22;3864;48.180;14.178;2023-06-14T13:03:47;25.70;95.30
7646;DHT22;3864;48.180;14.178;2023-06-14T13:06:17;25.80;94.20
7646;DHT22;3864;48.180;14.178;2023-06-14T13:08:45;26.20;95.40
7646;DHT22;3864;48.180;14.178;2023-06-14T13:11:12;26.50;95.30
7646;DHT22;3864;48.180;14.178;2023-06-14T13:13:40;26.30;93.70
7646;DHT22;3864;48.180;14.178;2023-06-14T13:16:07;26.70;93.50
7646;DHT22;3864;48.180;14.178;2023-06-14T13:18:37;26.80;92.90
7646;DHT22;3864;48.180;14.178;2023-06-14T13:21:05;26.80;93.60
7646;DHT22;3864;48.180;14.178;2023-06-14T13:23:33;27.60;92.60
7646;DHT22;3864;48.180;14.178;2023-06-14T13:26:00;27.60;92.00
7646;DHT22;3864;48.180;14.178;2023-06-14T13:28:27;26.80;91.40
7646;DHT22;3864;48.180;14.178;2023-06-14T13:30:55;26.80;91.80
7646;DHT22;3864;48.180;14.178;2023-06-14T13:33:22;26.30;92.60
7646;DHT22;3864;48.180;14.178;2023-06-14T13:35:52;26.60;91.80
7646;DHT22;3864;48.180;14.178;2023-06-14T13:38:19;26.60;92.30
7646;DHT22;3864;48.180;14.178;2023-06-14T13:40:47;26.60;91.40
7646;DHT22;3864;48.180;14.178;2023-06-14T13:43:14;25.60;91.00
7646;DHT22;3864;48.180;14.178;2023-06-14T13:45:41;26.30;91.70
7646;DHT22;3864;48.180;14.178;2023-06-14T13:48:09;25.90;91.60
7646;DHT22;3864;48.180;14.178;2023-06-14T13:50:36;26.90;91.90
7646;DHT22;3864;48.180;14.178;2023-06-14T13:53:05;27.00;91.40
7646;DHT22;3864;48.180;14.178;2023-06-14T13:55:33;26.90;91.70
7646;DHT22;3864;48.180;14.178;2023-06-14T13:58:00;26.90;91.80
7646;DHT22;3864;48.180;14.178;2023-06-14T14:00:27;27.00;90.90
7646;DHT22;3864;48.180;14.178;2023-06-14T14:02:55;26.30;90.70
7646;DHT22;3864;48.180;14.178;2023-06-14T14:05:22;26.50;91.60
7646;DHT22;3864;48.180;14.178;2023-06-14T14:07:54;27.30;92.50
7646;DHT22;3864;48.180;14.178;2023-06-14T14:10:24;27.70;93.00
7646;DHT22;3864;48.180;14.178;2023-06-14T14:12:52;27.50;91.10
7646;DHT22;3864;48.180;14.178;2023-06-14T14:15:20;27.10;91.10
7646;DHT22;3864;48.180;14.178;2023-06-14T14:17:47;27.40;91.90
7646;DHT22;3864;48.180;14.178;2023-06-14T14:20:15;26.50;91.00
7646;DHT22;3864;48.180;14.178;2023-06-14T14:22:43;26.50;92.30
7646;DHT22;3864;48.180;14.178;2023-06-14T14:25:10;26.60;92.90
7646;DHT22;3864;48.180;14.178;2023-06-14T14:27:39;26.40;91.90
7646;DHT22;3864;48.180;14.178;2023-06-14T14:30:08;26.70;92.30
7646;DHT22;3864;48.180;14.178;2023-06-14T14:32:35;26.80;91.30
7646;DHT22;3864;48.180;14.178;2023-06-14T14:35:03;26.30;90.80
7646;DHT22;3864;48.180;14.178;2023-06-14T14:37:30;27.30;91.40
7646;DHT22;3864;48.180;14.178;2023-06-14T14:39:58;27.50;90.40
7646;DHT22;3864;48.180;14.178;2023-06-14T14:42:25;27.30;91.10
7646;DHT22;3864;48.180;14.178;2023-06-14T14:44:55;27.30;89.40
7646;DHT22;3864;48.180;14.178;2023-06-14T14:47:22;27.30;88.20
7646;DHT22;3864;48.180;14.178;2023-06-14T14:49:50;27.50;90.10
7646;DHT22;3864;48.180;14.178;2023-06-14T14:52:17;27.10;89.30
7646;DHT22;3864;48.180;14.178;2023-06-14T14:54:44;26.80;90.20
7646;DHT22;3864;48.180;14.178;2023-06-14T14:57:12;26.90;90.70
7646;DHT22;3864;48.180;14.178;2023-06-14T14:59:39;27.30;90.20
7646;DHT22;3864;48.180;14.178;2023-06-14T15:02:08;27.00;90.60
7646;DHT22;3864;48.180;14.178;2023-06-14T15:04:35;27.30;89.00
7646;DHT22;3864;48.180;14.178;2023-06-14T15:07:03;27.20;87.40
7646;DHT22;3864;48.180;14.178;2023-06-14T15:09:31;27.90;90.00
7646;DHT22;3864;48.180;14.178;2023-06-14T15:11:59;27.90;88.40
7646;DHT22;3864;48.180;14.178;2023-06-14T15:14:26;27.50;89.00
7646;DHT22;3864;48.180;14.178;2023-06-14T15:16:53;27.80;90.00
7646;DHT22;3864;48.180;14.178;2023-06-14T15:19:23;27.50;89.40
7646;DHT22;3864;48.180;14.178;2023-06-14T15:21:50;27.80;89.30
7646;DHT22;3864;48.180;14.178;2023-06-14T15:24:17;27.50;89.10
7646;DHT22;3864;48.180;14.178;2023-06-14T15:26:45;27.30;88.60
7646;DHT22;3864;48.180;14.178;2023-06-14T15:29:12;27.60;88.70
7646;DHT22;3864;48.180;14.178;2023-06-14T15:31:39;26.80;88.50
7646;DHT22;3864;48.180;14.178;2023-06-14T15:34:07;27.50;88.20
7646;DHT22;3864;48.180;14.178;2023-06-14T15:36:36;28.20;90.90
7646;DHT22;3864;48.180;14.178;2023-06-14T15:39:03;28.30;90.40
7646;DHT22;3864;48.180;14.178;2023-06-14T15:41:30;28.50;90.20
7646;DHT22;3864;48.180;14.178;2023-06-14T15:43:58;28.80;90.00
7646;DHT22;3864;48.180;14.178;2023-06-14T15:46:25;28.20;89.40
7646;DHT22;3864;48.180;14.178;2023-06-14T15:48:52;27.60;88.60
7646;DHT22;3864;48.180;14.178;2023-06-14T15:51:20;26.80;89.60
7646;DHT22;3864;48.180;14.178;2023-06-14T15:53:49;25.80;89.70
7646;DHT22;3864;48.180;14.178;2023-06-14T15:56:17;25.40;91.20
7646;DHT22;3864;48.180;14.178;2023-06-14T15:58:45;25.70;91.50
7646;DHT22;3864;48.180;14.178;2023-06-14T16:01:12;26.30;93.70
7646;DHT22;3864;48.180;14.178;2023-06-14T16:03:40;27.10;92.30
7646;DHT22;3864;48.180;14.178;2023-06-14T16:06:07;27.50;91.80